KSPS/SPS METAR and TAF weather

Enter ICAO airport designator
Station Type Date Time Source
KSPS METAR 2020/04/10 17:52 UTC NOAA

KSPS 101752Z 12009KT 10SM FEW140 18/03 A3013 RMK AO2 SLP197 T01780033 10178 20067 58015


Station Type Date Time Source
KSPS Decoded METAR 2020/04/10 17:52 UTC NOAA

WICHITA FALLS SHEPPARD AFB, TX, United States (KSPS) 33-59N 98-30W 308M
Apr 10, 2020 - 01:52 PM EDT / 2020.04.10 1752 UTC
Wind: from the ESE (120 degrees) at 10 MPH (9 KT):0
Visibility: 10 mile(s):0
Sky conditions: mostly clear
Temperature: 64.0 F (17.8 C)
Dew Point: 37.9 F (3.3 C)
Relative Humidity: 37%
Pressure (altimeter): 30.13 in. Hg (1020 hPa)
Pressure tendency: 0.04 inches (1.5 hPa) lower than three hours ago
ob: KSPS 101752Z 12009KT 10SM FEW140 18/03 A3013 RMK AO2 SLP197 T01780033 10178 20067 58015
cycle: 18

Station Type Date Time Source
KSPS TAF 2020/04/10 18:22 UTC NOAA

TAF KSPS 101720Z 1018/1118 12008KT P6SM SCT200
FM111100 17009KT P6SM BKN050
FM111200 16008KT P6SM -SHRA BKN070
FM111300 17009KT P6SM -SHRA BKN027
FM111500 18011KT 6SM -SHRA OVC009
FM111600 17011KT P6SM -SHRA OVC016

Example: see airport list